Time;durP1;ratioP1;P1;durP2;ratioP2;P2;SDS_P1;SDS_P2;PMS_P1;PMS_P2;Temp;Humidity;BMP_temperature;BMP_pressure;BME280_temperature;BME280_humidity;BME280_pressure;Samples;Min_cycle;Max_cycle;Signal;HPM_P1;HPM_P2
2021/01/18 00:01:40;;;;;;;3.10;1.42;;;3.00;99.90;;;;;;4847448;29;20431;-68
2021/01/18 00:04:06;;;;;;;4.60;2.05;;;3.00;99.90;;;;;;4831496;29;20062;-68
2021/01/18 00:06:35;;;;;;;3.80;1.67;;;3.00;99.90;;;;;;4833983;29;20053;-69
2021/01/18 00:09:02;;;;;;;4.25;2.20;;;3.00;99.90;;;;;;4828816;29;20057;-68
2021/01/18 00:11:29;;;;;;;4.05;1.80;;;3.00;99.90;;;;;;4837398;29;20057;-68
2021/01/18 00:13:56;;;;;;;3.15;1.63;;;3.10;99.90;;;;;;4834518;29;20393;-69
2021/01/18 00:16:23;;;;;;;2.78;1.80;;;3.00;99.90;;;;;;4831057;29;20057;-68
2021/01/18 00:18:50;;;;;;;2.33;1.70;;;2.90;99.90;;;;;;4839481;29;20050;-68
2021/01/18 00:21:17;;;;;;;3.10;1.70;;;2.90;99.90;;;;;;4858470;29;20431;-68
2021/01/18 00:23:44;;;;;;;3.88;1.40;;;3.00;99.90;;;;;;4840770;29;20054;-68
2021/01/18 00:26:11;;;;;;;3.95;1.50;;;3.00;99.90;;;;;;4850884;29;20098;-68
2021/01/18 00:28:41;;;;;;;2.40;1.50;;;3.10;99.90;;;;;;4850171;29;20152;-68
2021/01/18 00:31:08;;;;;;;4.68;1.80;;;3.10;99.90;;;;;;4833330;29;20378;-68
2021/01/18 00:33:36;;;;;;;3.22;1.80;;;3.10;99.90;;;;;;4831713;29;20053;-68
2021/01/18 00:36:04;;;;;;;2.25;1.80;;;3.10;99.90;;;;;;4833897;29;20109;-68
2021/01/18 00:38:32;;;;;;;3.15;1.60;;;3.20;99.90;;;;;;4842699;29;20061;-68
2021/01/18 00:40:58;;;;;;;3.78;1.60;;;3.20;99.90;;;;;;4855724;29;20157;-68
2021/01/18 00:43:25;;;;;;;2.88;1.80;;;3.20;99.90;;;;;;4842280;29;20403;-68
2021/01/18 00:45:51;;;;;;;4.90;2.20;;;3.20;99.90;;;;;;4841231;29;20423;-68
2021/01/18 00:48:17;;;;;;;5.88;2.20;;;3.20;99.90;;;;;;4849839;29;20570;-68
2021/01/18 00:50:44;;;;;;;3.67;2.47;;;3.20;99.90;;;;;;4828992;29;20070;-68
2021/01/18 00:53:10;;;;;;;3.85;1.73;;;3.20;99.90;;;;;;4839096;29;20106;-68
2021/01/18 00:55:37;;;;;;;5.82;2.30;;;3.10;99.90;;;;;;4832181;29;20057;-68
2021/01/18 00:58:03;;;;;;;3.53;2.17;;;3.10;99.90;;;;;;4845020;29;20106;-68
2021/01/18 01:00:30;;;;;;;4.38;1.90;;;3.10;99.90;;;;;;4844273;29;20102;-68
2021/01/18 01:02:57;;;;;;;3.97;2.05;;;3.10;99.90;;;;;;4853661;29;20089;-68
2021/01/18 01:05:27;;;;;;;6.95;2.03;;;3.00;99.90;;;;;;4860804;29;20645;-68
2021/01/18 01:07:55;;;;;;;;;;;3.00;99.90;;;;;;4858829;29;20073;-68
2021/01/18 01:10:31;;;;;;;4.90;2.30;;;3.00;99.90;;;;;;4844164;29;19967;-68
2021/01/18 01:13:00;;;;;;;2.58;1.80;;;3.00;99.90;;;;;;4842167;29;20164;-68
2021/01/18 01:15:28;;;;;;;3.20;1.95;;;2.90;99.90;;;;;;4853823;29;20101;-68
2021/01/18 01:17:54;;;;;;;2.88;2.08;;;2.90;99.90;;;;;;4852165;29;20490;-68
2021/01/18 01:20:22;;;;;;;2.95;2.08;;;2.90;99.90;;;;;;4841055;29;20049;-68
2021/01/18 01:22:50;;;;;;;2.95;1.73;;;2.90;99.90;;;;;;4844587;29;20106;-68
2021/01/18 01:25:19;;;;;;;4.85;2.03;;;2.90;99.90;;;;;;4859727;29;20053;-68
2021/01/18 01:27:45;;;;;;;;;;;2.80;99.90;;;;;;4853415;29;20372;-68
2021/01/18 01:30:14;;;;;;;3.55;2.00;;;2.80;99.90;;;;;;4834555;29;19975;-68
2021/01/18 01:32:42;;;;;;;4.15;2.35;;;2.70;99.90;;;;;;4837105;29;20414;-68
2021/01/18 01:35:10;;;;;;;2.90;1.85;;;2.70;99.90;;;;;;4841186;29;20086;-68
2021/01/18 01:37:37;;;;;;;2.27;1.53;;;2.70;99.90;;;;;;4842734;29;20061;-68
2021/01/18 01:40:11;;;;;;;4.63;2.13;;;2.80;99.90;;;;;;4843116;29;20485;-68
2021/01/18 01:42:37;;;;;;;3.78;1.90;;;2.70;99.90;;;;;;4859648;29;20053;-67
2021/01/18 01:45:06;;;;;;;3.95;1.90;;;2.70;99.90;;;;;;4840944;29;20109;-68
2021/01/18 01:47:39;;;;;;;3.97;2.30;;;2.70;99.90;;;;;;4850013;29;20057;-68
2021/01/18 01:50:10;;;;;;;3.22;2.13;;;2.60;99.90;;;;;;4841620;29;20053;-68
2021/01/18 01:53:07;;;;;;;2.65;1.85;;;2.60;99.90;;;;;;4853470;29;20054;-68
2021/01/18 01:55:34;;;;;;;2.53;1.63;;;2.60;99.90;;;;;;4841405;29;20077;-68
2021/01/18 01:58:04;;;;;;;3.75;1.83;;;2.50;99.90;;;;;;4844739;29;20049;-68
2021/01/18 02:00:38;;;;;;;3.33;1.95;;;2.50;99.90;;;;;;4841898;29;20054;-68
2021/01/18 02:03:10;;;;;;;2.95;1.73;;;2.50;99.90;;;;;;4852869;29;20109;-68
2021/01/18 02:05:39;;;;;;;4.25;2.00;;;2.50;99.90;;;;;;4842274;29;20057;-68
2021/01/18 02:08:07;;;;;;;3.90;1.70;;;2.50;99.90;;;;;;4859324;29;20054;-68
2021/01/18 02:10:34;;;;;;;4.43;1.83;;;2.50;99.90;;;;;;4860178;29;20101;-68
2021/01/18 02:13:38;;;;;;;3.50;1.80;;;2.50;99.90;;;;;;4844346;29;20383;-68
2021/01/18 02:16:26;;;;;;;4.15;1.65;;;2.50;99.90;;;;;;4842385;29;20455;-68
2021/01/18 02:19:17;;;;;;;3.13;1.52;;;2.50;99.90;;;;;;4840878;29;20053;-68
2021/01/18 02:21:53;;;;;;;2.70;1.83;;;2.60;99.90;;;;;;4829486;29;20521;-68
2021/01/18 02:24:23;;;;;;;3.67;1.63;;;2.50;99.90;;;;;;4844116;29;20060;-68
2021/01/18 02:27:20;;;;;;;2.95;1.88;;;2.50;99.90;;;;;;4832459;29;20072;-68
2021/01/18 02:30:11;;;;;;;4.40;2.42;;;2.50;99.90;;;;;;4843369;29;20057;-68
2021/01/18 02:32:50;;;;;;;3.33;2.00;;;2.50;99.90;;;;;;4834119;29;20061;-68
2021/01/18 02:35:39;;;;;;;2.78;1.58;;;2.50;99.90;;;;;;4840773;29;20077;-68
2021/01/18 02:38:27;;;;;;;2.63;1.60;;;2.50;99.90;;;;;;4841722;29;20431;-68
2021/01/18 02:41:20;;;;;;;3.40;1.80;;;2.50;99.90;;;;;;4843373;29;20085;-68
2021/01/18 02:43:50;;;;;;;3.17;1.73;;;2.40;99.90;;;;;;4843272;29;20049;-68
2021/01/18 02:46:21;;;;;;;2.58;1.73;;;2.40;99.90;;;;;;4839192;29;20054;-68
2021/01/18 02:48:50;;;;;;;4.05;1.83;;;2.40;99.90;;;;;;4842848;29;20489;-68
2021/01/18 02:51:21;;;;;;;;;;;2.40;99.90;;;;;;4850226;29;20065;-68
2021/01/18 02:53:58;;;;;;;2.75;1.63;;;2.40;99.90;;;;;;4842348;29;19924;-68
2021/01/18 02:56:27;;;;;;;3.35;1.38;;;2.30;99.90;;;;;;4834287;29;20501;-68
2021/01/18 02:58:57;;;;;;;2.38;1.55;;;2.30;99.90;;;;;;4832799;29;20049;-68
2021/01/18 03:01:51;;;;;;;4.57;1.60;;;2.30;99.90;;;;;;4836196;29;20062;-68
2021/01/18 03:04:39;;;;;;;2.80;1.67;;;2.30;99.90;;;;;;4829652;29;20141;-68
2021/01/18 03:07:25;;;;;;;4.90;1.60;;;2.30;99.90;;;;;;4837490;29;20133;-68
2021/01/18 03:10:07;;;;;;;3.55;1.67;;;2.30;99.90;;;;;;4839078;29;20053;-68
2021/01/18 03:12:51;;;;;;;4.70;1.58;;;2.30;99.90;;;;;;4843189;29;20412;-68
2021/01/18 03:15:20;;;;;;;1.85;1.55;;;2.30;99.90;;;;;;4834713;29;20058;-68
2021/01/18 03:17:47;;;;;;;2.30;1.55;;;2.30;99.90;;;;;;4858910;29;20057;-67
2021/01/18 03:20:14;;;;;;;6.05;1.75;;;2.30;99.90;;;;;;4855434;29;20494;-68
2021/01/18 03:22:41;;;;;;;2.28;1.52;;;2.40;99.90;;;;;;4840123;29;20054;-68
2021/01/18 03:25:08;;;;;;;3.65;1.77;;;2.40;99.90;;;;;;4837422;29;20459;-68
2021/01/18 03:27:53;;;;;;;4.05;2.25;;;2.40;99.90;;;;;;4841825;29;20057;-68
2021/01/18 03:30:21;;;;;;;4.60;2.13;;;2.50;99.90;;;;;;4841580;29;20418;-68
2021/01/18 03:32:51;;;;;;;3.08;1.63;;;2.50;99.90;;;;;;4828778;29;20103;-68
2021/01/18 03:35:19;;;;;;;5.03;2.10;;;2.50;99.90;;;;;;4840976;29;20094;-68
2021/01/18 03:37:53;;;;;;;6.70;2.38;;;2.60;99.90;;;;;;4835669;29;20058;-68
2021/01/18 03:40:24;;;;;;;4.05;2.05;;;2.60;99.90;;;;;;4833823;29;20351;-68
2021/01/18 03:42:59;;;;;;;7.90;2.42;;;2.60;99.90;;;;;;4842892;29;20118;-68
2021/01/18 03:45:27;;;;;;;5.53;2.20;;;2.60;99.90;;;;;;4837272;29;20490;-68
2021/01/18 03:47:53;;;;;;;3.85;2.03;;;2.60;99.90;;;;;;4832317;29;20058;-68
2021/01/18 03:50:21;;;;;;;6.00;2.20;;;2.60;99.90;;;;;;4833423;29;20085;-68
2021/01/18 03:52:49;;;;;;;5.53;2.15;;;2.70;99.90;;;;;;4836969;29;20133;-68
2021/01/18 03:55:16;;;;;;;5.28;2.53;;;2.70;99.90;;;;;;4834889;29;20050;-68
2021/01/18 03:57:46;;;;;;;6.85;2.47;;;2.70;99.90;;;;;;4852548;29;20463;-68
2021/01/18 04:00:14;;;;;;;5.50;2.05;;;2.70;99.90;;;;;;4844547;29;20053;-68
2021/01/18 04:02:40;;;;;;;3.83;2.08;;;2.70;99.90;;;;;;4842654;29;20738;-68
2021/01/18 04:05:08;;;;;;;5.55;2.08;;;2.70;99.90;;;;;;4856554;29;20113;-68
2021/01/18 04:07:35;;;;;;;3.42;2.08;;;2.70;99.90;;;;;;4839199;29;20066;-68
2021/01/18 04:10:03;;;;;;;6.47;2.20;;;2.70;99.90;;;;;;4835464;29;20062;-68
2021/01/18 04:12:30;;;;;;;3.63;2.38;;;2.70;99.90;;;;;;4835661;29;20057;-68
2021/01/18 04:14:56;;;;;;;4.95;2.00;;;2.70;99.90;;;;;;4831794;29;20466;-68
2021/01/18 04:17:22;;;;;;;4.55;2.25;;;2.70;99.90;;;;;;4840842;29;20049;-68
2021/01/18 04:19:49;;;;;;;4.25;2.45;;;2.80;99.90;;;;;;4837709;29;20092;-68
2021/01/18 04:22:16;;;;;;;5.38;2.28;;;2.80;99.90;;;;;;4826411;29;20056;-68
2021/01/18 04:24:42;;;;;;;7.10;2.63;;;2.80;99.90;;;;;;4834024;29;20117;-68
2021/01/18 04:27:09;;;;;;;5.95;2.67;;;2.80;99.90;;;;;;4840057;29;20591;-68
2021/01/18 04:29:36;;;;;;;6.38;2.40;;;2.80;99.90;;;;;;4841234;29;20077;-68
2021/01/18 04:32:03;;;;;;;6.35;2.65;;;2.90;99.90;;;;;;4839515;29;20355;-68
2021/01/18 04:34:30;;;;;;;5.80;2.70;;;2.90;99.90;;;;;;4836908;29;20058;-68
2021/01/18 04:36:56;;;;;;;7.60;2.60;;;2.90;99.90;;;;;;4846338;29;20520;-68
2021/01/18 04:39:23;;;;;;;8.73;2.58;;;2.90;99.90;;;;;;4841209;29;20047;-68
2021/01/18 04:41:49;;;;;;;4.75;2.40;;;2.90;99.90;;;;;;4840110;29;20114;-68
2021/01/18 04:44:16;;;;;;;4.47;2.63;;;2.90;99.90;;;;;;4845517;29;20061;-68
2021/01/18 04:46:45;;;;;;;4.47;2.20;;;2.90;99.90;;;;;;4843592;29;20081;-68
2021/01/18 04:49:14;;;;;;;6.35;2.42;;;2.90;99.90;;;;;;4840193;29;20140;-68
2021/01/18 04:51:48;;;;;;;;;;;2.90;99.90;;;;;;4838936;29;20413;-68
2021/01/18 04:54:20;;;;;;;3.50;1.90;;;2.80;99.90;;;;;;4864265;29;19978;-68
2021/01/18 04:57:12;;;;;;;5.25;2.17;;;2.90;99.90;;;;;;4856678;29;20087;-68
2021/01/18 04:59:54;;;;;;;4.35;1.83;;;2.80;99.90;;;;;;4837058;29;20049;-68
2021/01/18 05:02:23;;;;;;;6.82;2.15;;;2.80;99.90;;;;;;4852021;29;20061;-68
2021/01/18 05:04:52;;;;;;;7.22;2.53;;;2.80;99.90;;;;;;4845859;29;20102;-68
2021/01/18 05:07:37;;;;;;;5.27;2.60;;;2.80;99.90;;;;;;4840043;29;20049;-68
2021/01/18 05:10:05;;;;;;;4.88;2.35;;;2.80;99.90;;;;;;4864488;29;20054;-68
2021/01/18 05:12:38;;;;;;;6.03;2.57;;;2.80;99.90;;;;;;4858310;29;20162;-68
2021/01/18 05:15:09;;;;;;;4.35;2.10;;;2.80;99.90;;;;;;4836141;29;20728;-68
2021/01/18 05:17:41;;;;;;;8.93;2.38;;;2.80;99.90;;;;;;4835535;29;20121;-68
2021/01/18 05:20:09;;;;;;;4.60;2.47;;;2.80;99.90;;;;;;4854818;29;20068;-68
2021/01/18 05:22:36;;;;;;;3.97;2.38;;;2.90;99.90;;;;;;4850269;29;20061;-68
2021/01/18 05:25:07;;;;;;;6.32;2.55;;;2.90;99.90;;;;;;4843630;29;20050;-68
2021/01/18 05:27:34;;;;;;;7.97;2.67;;;2.90;99.90;;;;;;4839468;29;20549;-68
2021/01/18 05:30:00;;;;;;;5.57;2.90;;;2.90;99.90;;;;;;4853033;29;20113;-68
2021/01/18 05:32:27;;;;;;;7.38;2.72;;;2.90;99.90;;;;;;4840295;29;20089;-68
2021/01/18 05:35:12;;;;;;;5.88;2.80;;;2.90;99.90;;;;;;4843017;29;20462;-68
2021/01/18 05:37:57;;;;;;;17.40;3.30;;;3.00;99.90;;;;;;4848602;29;20054;-68
2021/01/18 05:40:26;;;;;;;8.13;3.25;;;2.90;99.90;;;;;;4856462;29;20054;-68
2021/01/18 05:42:53;;;;;;;9.55;3.33;;;2.90;99.90;;;;;;4841537;29;20076;-68
2021/01/18 05:45:28;;;;;;;13.48;4.13;;;2.90;99.90;;;;;;4836822;29;20057;-68
2021/01/18 05:47:55;;;;;;;8.15;2.88;;;3.00;99.90;;;;;;4848139;29;20054;-68
2021/01/18 05:50:23;;;;;;;4.97;2.50;;;3.00;99.90;;;;;;4838339;29;20106;-68
2021/01/18 05:52:50;;;;;;;7.15;3.03;;;3.00;99.90;;;;;;4832861;29;20132;-68
2021/01/18 05:55:21;;;;;;;6.47;2.88;;;3.00;99.90;;;;;;4832575;29;20054;-68
2021/01/18 05:57:50;;;;;;;10.38;3.15;;;3.00;99.90;;;;;;4841007;29;20046;-68
2021/01/18 06:00:24;;;;;;;;;;;3.10;99.90;;;;;;4867074;29;20058;-68
2021/01/18 06:02:50;;;;;;;10.07;3.65;;;3.10;99.90;;;;;;4838492;29;19924;-68
2021/01/18 06:05:30;;;;;;;7.78;3.30;;;3.10;99.90;;;;;;4842701;29;20450;-68
2021/01/18 06:08:15;;;;;;;7.18;2.80;;;3.10;99.90;;;;;;4851420;29;20125;-68
2021/01/18 06:10:43;;;;;;;8.57;2.80;;;3.10;99.90;;;;;;4849989;29;20081;-68
2021/01/18 06:13:22;;;;;;;9.02;3.28;;;3.10;99.90;;;;;;4832659;29;20085;-68
2021/01/18 06:16:06;;;;;;;9.03;4.20;;;3.20;99.90;;;;;;4842417;29;20050;-68
2021/01/18 06:18:33;;;;;;;13.63;3.72;;;3.20;99.90;;;;;;4855457;29;20298;-68
2021/01/18 06:21:05;;;;;;;7.70;3.50;;;3.20;99.90;;;;;;4836740;29;20125;-68
2021/01/18 06:23:32;;;;;;;6.63;3.70;;;3.30;99.90;;;;;;4843634;29;20069;-68
2021/01/18 06:26:00;;;;;;;9.82;3.65;;;3.30;99.90;;;;;;4851943;29;20054;-68
2021/01/18 06:28:35;;;;;;;10.73;3.60;;;3.30;99.90;;;;;;4836780;29;20484;-68
2021/01/18 06:31:10;;;;;;;9.65;3.28;;;3.30;99.90;;;;;;4850859;29;20082;-68
2021/01/18 06:33:48;;;;;;;8.90;3.33;;;3.30;99.90;;;;;;4836909;29;20157;-68
2021/01/18 06:36:22;;;;;;;8.25;3.75;;;3.30;99.90;;;;;;4839161;29;20054;-68
2021/01/18 06:38:58;;;;;;;8.93;3.90;;;3.30;99.90;;;;;;4837548;29;20084;-68
2021/01/18 06:41:26;;;;;;;9.00;3.70;;;3.30;99.90;;;;;;4839926;29;20109;-68
2021/01/18 06:43:53;;;;;;;11.45;4.03;;;3.30;99.90;;;;;;4836250;29;20080;-68
2021/01/18 06:46:25;;;;;;;8.52;3.85;;;3.30;99.90;;;;;;4834766;29;20057;-68
2021/01/18 06:48:53;;;;;;;8.90;3.85;;;3.40;99.90;;;;;;4842478;29;20092;-68
2021/01/18 06:51:24;;;;;;;12.88;4.18;;;3.40;99.90;;;;;;4840445;29;20489;-68
2021/01/18 06:53:52;;;;;;;13.63;4.22;;;3.40;99.90;;;;;;4848774;29;20144;-68
2021/01/18 06:56:21;;;;;;;11.27;4.67;;;3.40;99.90;;;;;;4836123;29;20050;-68
2021/01/18 06:59:24;;;;;;;10.00;4.18;;;3.40;99.90;;;;;;4839011;29;20049;-68
2021/01/18 07:02:15;;;;;;;11.75;4.60;;;3.50;99.90;;;;;;4831620;29;20058;-68
2021/01/18 07:04:47;;;;;;;9.63;4.13;;;3.50;99.90;;;;;;4837622;29;20109;-68
2021/01/18 07:07:26;;;;;;;10.35;3.95;;;3.50;99.90;;;;;;4840843;29;20113;-68
2021/01/18 07:10:11;;;;;;;12.35;4.07;;;3.50;99.90;;;;;;4831585;29;20066;-68
2021/01/18 07:12:38;;;;;;;11.45;4.63;;;3.50;99.90;;;;;;4837463;29;20079;-68
2021/01/18 07:15:10;;;;;;;8.43;3.53;;;3.50;99.90;;;;;;4851441;29;20053;-68
2021/01/18 07:17:42;;;;;;;9.35;4.35;;;3.50;99.90;;;;;;4835554;29;20110;-68
2021/01/18 07:20:22;;;;;;;10.75;3.97;;;3.50;99.90;;;;;;4838456;29;20447;-68
2021/01/18 07:23:06;;;;;;;8.88;4.32;;;3.60;99.90;;;;;;4840285;29;20072;-68
2021/01/18 07:25:38;;;;;;;7.78;3.20;;;3.60;99.90;;;;;;4838947;29;20749;-68
2021/01/18 07:28:07;;;;;;;9.05;3.83;;;3.60;99.90;;;;;;4837822;29;20053;-68
2021/01/18 07:30:35;;;;;;;11.25;4.28;;;3.60;99.90;;;;;;4831277;29;20064;-68
2021/01/18 07:33:10;;;;;;;10.85;3.75;;;3.60;99.90;;;;;;4828899;29;20418;-68
2021/01/18 07:35:38;;;;;;;10.25;3.80;;;3.60;99.90;;;;;;4838929;29;20073;-68
2021/01/18 07:38:19;;;;;;;6.20;2.85;;;3.60;99.90;;;;;;4826083;29;20061;-68
2021/01/18 07:41:08;;;;;;;9.60;3.25;;;3.60;99.90;;;;;;4823860;29;20070;-68
2021/01/18 07:43:35;;;;;;;7.40;3.33;;;3.60;99.90;;;;;;4824926;29;20132;-68
2021/01/18 07:46:25;;;;;;;8.45;4.03;;;3.70;99.90;;;;;;4825113;29;20103;-68
2021/01/18 07:48:58;;;;;;;9.65;3.60;;;3.70;99.90;;;;;;4825433;29;20514;-68
2021/01/18 07:51:29;;;;;;;11.25;4.05;;;3.70;99.90;;;;;;4826941;29;20116;-68
2021/01/18 07:53:56;;;;;;;9.63;3.95;;;3.70;99.90;;;;;;4829219;29;20057;-68
2021/01/18 07:56:27;;;;;;;7.68;3.88;;;3.70;99.90;;;;;;4823699;29;20065;-68
2021/01/18 07:59:00;;;;;;;10.45;3.28;;;3.70;99.90;;;;;;4837809;29;20057;-68
2021/01/18 08:01:28;;;;;;;8.95;3.58;;;3.70;99.90;;;;;;4826522;29;20402;-68
2021/01/18 08:04:21;;;;;;;8.75;3.65;;;3.70;99.90;;;;;;4824805;29;20494;-68
2021/01/18 08:07:14;;;;;;;10.77;4.45;;;3.80;99.90;;;;;;4826179;29;20054;-68
2021/01/18 08:09:41;;;;;;;8.40;3.72;;;3.80;99.90;;;;;;4825425;29;20065;-68
2021/01/18 08:12:34;;;;;;;8.38;3.70;;;3.80;99.90;;;;;;4829423;29;20073;-68
2021/01/18 08:15:10;;;;;;;13.10;3.80;;;3.80;99.90;;;;;;4827566;29;20061;-68
2021/01/18 08:17:37;;;;;;;11.70;3.80;;;3.80;99.90;;;;;;4843031;29;20081;-68
2021/01/18 08:20:13;;;;;;;13.30;4.25;;;3.80;99.90;;;;;;4825276;29;20133;-68
2021/01/18 08:22:40;;;;;;;11.07;3.88;;;3.80;99.90;;;;;;4825638;29;20072;-68
2021/01/18 08:25:07;;;;;;;10.52;3.83;;;3.80;99.90;;;;;;4827212;29;20049;-68
2021/01/18 08:27:42;;;;;;;6.90;3.03;;;3.90;99.90;;;;;;4826322;29;20507;-67
2021/01/18 08:30:19;;;;;;;8.15;3.78;;;3.90;99.90;;;;;;4854020;29;20125;-68
2021/01/18 08:33:03;;;;;;;11.02;3.75;;;3.90;99.90;;;;;;4829376;29;20065;-68
2021/01/18 08:35:40;;;;;;;12.07;4.13;;;4.00;99.90;;;;;;4826169;29;20054;-68
2021/01/18 08:38:09;;;;;;;10.32;3.80;;;4.00;99.90;;;;;;4828368;29;20053;-68
2021/01/18 08:40:44;;;;;;;7.60;3.20;;;4.00;99.90;;;;;;4828139;29;20160;-68
2021/01/18 08:43:12;;;;;;;7.95;3.97;;;4.00;99.90;;;;;;4827891;29;20699;-68
2021/01/18 08:45:43;;;;;;;8.85;3.65;;;4.00;99.90;;;;;;4827514;29;20114;-68
2021/01/18 08:48:12;;;;;;;8.07;3.70;;;4.10;99.90;;;;;;4823016;29;20129;-68
2021/01/18 08:50:52;;;;;;;9.05;3.47;;;4.10;99.90;;;;;;4826776;29;20077;-68
2021/01/18 08:53:30;;;;;;;12.27;3.88;;;4.10;99.90;;;;;;4829338;29;20691;-68
2021/01/18 08:56:04;;;;;;;8.20;3.50;;;4.20;99.90;;;;;;4843305;29;20175;-68
2021/01/18 08:58:36;;;;;;;8.40;3.33;;;4.20;99.90;;;;;;4827192;29;20765;-68
2021/01/18 09:01:04;;;;;;;8.75;3.97;;;4.20;99.90;;;;;;4824633;29;20138;-67
2021/01/18 09:03:31;;;;;;;6.90;3.50;;;4.20;99.90;;;;;;4828863;29;20057;-68
2021/01/18 09:05:59;;;;;;;9.85;3.75;;;4.20;99.90;;;;;;4828951;29;20136;-68
2021/01/18 09:08:27;;;;;;;7.47;3.53;;;4.30;99.90;;;;;;4830421;29;20140;-68
2021/01/18 09:11:06;;;;;;;6.57;3.30;;;4.30;99.90;;;;;;4825911;29;20055;-68
2021/01/18 09:13:36;;;;;;;7.90;3.70;;;4.40;99.90;;;;;;4827366;29;20149;-67
2021/01/18 09:16:06;;;;;;;8.68;3.45;;;4.40;99.90;;;;;;4824769;29;20454;-68
2021/01/18 09:18:34;;;;;;;10.15;3.33;;;4.40;99.90;;;;;;4828759;29;20049;-68
2021/01/18 09:21:01;;;;;;;8.80;3.25;;;4.50;99.90;;;;;;4839640;29;20057;-68
2021/01/18 09:23:28;;;;;;;7.35;3.35;;;4.50;99.90;;;;;;4831868;29;20050;-68
2021/01/18 09:26:13;;;;;;;6.78;3.30;;;4.50;99.90;;;;;;4830324;29;20050;-68
2021/01/18 09:28:41;;;;;;;10.45;3.60;;;4.50;99.90;;;;;;4855465;29;20057;-68
2021/01/18 09:31:13;;;;;;;9.95;4.10;;;4.60;99.90;;;;;;4831160;29;20069;-68
2021/01/18 09:33:41;;;;;;;7.75;3.47;;;4.60;99.90;;;;;;4855136;29;20049;-68
2021/01/18 09:36:16;;;;;;;12.32;3.55;;;4.60;99.90;;;;;;4843650;29;20110;-68
2021/01/18 09:38:45;;;;;;;7.78;3.85;;;4.70;99.90;;;;;;4829669;29;20053;-68
2021/01/18 09:41:12;;;;;;;7.35;3.15;;;4.70;99.90;;;;;;4830663;29;20052;-68
2021/01/18 09:43:41;;;;;;;6.88;3.22;;;4.80;99.90;;;;;;4830588;29;20117;-68
2021/01/18 09:46:08;;;;;;;9.65;3.58;;;4.80;99.90;;;;;;4828220;29;20065;-68
2021/01/18 09:48:38;;;;;;;10.77;4.22;;;4.90;99.90;;;;;;4831345;29;20057;-68
2021/01/18 09:51:07;;;;;;;13.63;3.88;;;4.90;99.90;;;;;;4847548;29;20060;-67
2021/01/18 09:53:35;;;;;;;8.07;3.25;;;5.00;99.90;;;;;;4830499;29;20133;-68
2021/01/18 09:56:04;;;;;;;11.23;4.18;;;5.00;99.90;;;;;;4825251;29;20049;-68
2021/01/18 09:58:58;;;;;;;6.68;3.53;;;5.00;99.90;;;;;;4828521;29;20057;-68
2021/01/18 10:01:33;;;;;;;13.15;3.90;;;5.10;99.90;;;;;;4828737;29;20145;-68
2021/01/18 10:04:04;;;;;;;12.05;3.90;;;5.10;99.90;;;;;;4826705;29;20050;-67
2021/01/18 10:06:34;;;;;;;10.50;3.60;;;5.10;99.90;;;;;;4846512;29;20482;-68
2021/01/18 10:09:08;;;;;;;6.85;3.78;;;5.20;99.90;;;;;;4827216;29;20339;-67
2021/01/18 10:11:47;;;;;;;9.18;4.13;;;5.20;99.90;;;;;;4830746;29;20518;-68
2021/01/18 10:14:21;;;;;;;13.17;3.67;;;5.30;99.90;;;;;;4826356;29;20061;-68
2021/01/18 10:17:10;;;;;;;10.00;3.85;;;5.30;99.90;;;;;;4855302;29;20095;-67
2021/01/18 10:19:39;;;;;;;13.13;4.05;;;5.30;99.90;;;;;;4830897;29;20470;-68
2021/01/18 10:22:19;;;;;;;7.15;3.55;;;5.40;99.90;;;;;;4829855;29;20049;-68
2021/01/18 10:24:55;;;;;;;10.05;3.67;;;5.40;99.90;;;;;;4828031;29;20061;-68
2021/01/18 10:27:27;;;;;;;7.18;3.45;;;5.40;99.90;;;;;;4838019;29;20421;-67
2021/01/18 10:30:27;;;;;;;9.07;3.90;;;5.40;99.90;;;;;;4844191;29;20140;-68
2021/01/18 10:32:56;;;;;;;8.60;4.10;;;5.50;99.90;;;;;;4788103;29;20050;-67
2021/01/18 10:35:35;;;;;;;12.68;3.97;;;5.50;99.90;;;;;;4826425;29;20117;-67
2021/01/18 10:38:22;;;;;;;9.38;3.78;;;5.50;99.90;;;;;;4830603;29;20423;-68
2021/01/18 10:41:07;;;;;;;9.13;3.53;;;5.60;99.90;;;;;;4842396;29;20067;-68
2021/01/18 10:43:54;;;;;;;9.25;3.60;;;5.50;99.90;;;;;;4828659;29;20109;-68
2021/01/18 10:46:21;;;;;;;14.48;3.90;;;5.60;99.90;;;;;;4826572;29;20495;-68
2021/01/18 10:48:58;;;;;;;7.22;3.67;;;5.60;99.90;;;;;;4828083;29;20497;-68
2021/01/18 10:51:25;;;;;;;7.93;4.15;;;5.60;99.90;;;;;;4825158;29;20061;-68
2021/01/18 10:53:57;;;;;;;8.83;4.37;;;5.60;99.90;;;;;;4831581;29;20073;-68
2021/01/18 10:56:43;;;;;;;7.18;4.07;;;5.60;99.90;;;;;;4837253;29;20057;-68
2021/01/18 10:59:12;;;;;;;7.63;3.60;;;5.60;99.90;;;;;;4841345;29;20054;-68
2021/01/18 11:01:56;;;;;;;11.15;4.55;;;5.60;99.90;;;;;;4829613;29;20114;-68
2021/01/18 11:04:23;;;;;;;9.70;3.45;;;5.70;99.90;;;;;;4826034;29;20068;-68
2021/01/18 11:06:51;;;;;;;10.05;3.63;;;5.70;99.90;;;;;;4824748;29;20058;-68
2021/01/18 11:09:29;;;;;;;10.02;3.83;;;5.70;99.90;;;;;;4828256;29;20053;-67
2021/01/18 11:11:59;;;;;;;9.50;4.00;;;5.70;99.90;;;;;;4828794;29;20103;-68
2021/01/18 11:14:26;;;;;;;;;;;5.70;99.90;;;;;;4839167;29;20062;-67
2021/01/18 11:17:04;;;;;;;10.85;3.97;;;5.70;99.90;;;;;;4829982;29;19976;-67
2021/01/18 11:19:31;;;;;;;8.63;3.85;;;5.70;99.90;;;;;;4826360;29;20060;-68
2021/01/18 11:21:57;;;;;;;11.43;3.92;;;5.60;99.90;;;;;;4827731;29;20054;-68
2021/01/18 11:24:24;;;;;;;12.05;3.95;;;5.60;99.90;;;;;;4825595;29;20144;-68
2021/01/18 11:26:51;;;;;;;10.10;3.90;;;5.60;99.90;;;;;;4826841;29;20106;-68
2021/01/18 11:29:18;;;;;;;10.45;3.35;;;5.70;99.90;;;;;;4828264;29;20058;-68
2021/01/18 11:31:46;;;;;;;9.70;3.58;;;5.70;99.90;;;;;;4828925;29;20332;-68
2021/01/18 11:34:13;;;;;;;5.80;3.17;;;5.70;99.90;;;;;;4825976;29;20106;-67
2021/01/18 11:36:41;;;;;;;9.55;3.30;;;5.70;99.90;;;;;;4839533;29;20081;-68
2021/01/18 11:39:09;;;;;;;11.50;3.63;;;5.70;99.90;;;;;;4827258;29;20061;-68
2021/01/18 11:41:37;;;;;;;6.88;3.17;;;5.70;99.90;;;;;;4846503;29;20057;-68
2021/01/18 11:44:05;;;;;;;11.05;4.13;;;5.80;99.90;;;;;;4826329;29;20087;-68
2021/01/18 11:46:33;;;;;;;9.23;3.28;;;5.80;99.90;;;;;;4843250;29;20439;-68
2021/01/18 11:49:00;;;;;;;9.38;4.13;;;5.80;99.90;;;;;;4828764;29;20050;-68
2021/01/18 11:51:27;;;;;;;13.27;3.95;;;5.80;99.90;;;;;;4829203;29;20058;-68
2021/01/18 11:53:53;;;;;;;12.07;3.45;;;5.80;99.90;;;;;;4841640;29;20064;-67
2021/01/18 11:56:29;;;;;;;14.00;4.10;;;5.90;99.90;;;;;;4835950;29;20049;-68
2021/01/18 11:58:55;;;;;;;7.00;3.22;;;5.90;99.90;;;;;;4841771;29;20094;-67
2021/01/18 12:01:22;;;;;;;7.90;2.83;;;6.00;99.90;;;;;;4827388;29;20070;-67
2021/01/18 12:03:48;;;;;;;10.63;3.40;;;6.00;99.90;;;;;;4827322;29;20370;-67
2021/01/18 12:06:15;;;;;;;8.38;3.30;;;6.00;99.90;;;;;;4839744;29;20054;-68
2021/01/18 12:08:41;;;;;;;6.07;3.10;;;6.00;99.90;;;;;;4838533;29;20069;-67
2021/01/18 12:11:07;;;;;;;11.20;3.28;;;6.00;99.90;;;;;;4844615;29;20122;-68
2021/01/18 12:13:34;;;;;;;11.77;3.53;;;6.10;99.90;;;;;;4826056;29;20064;-68
2021/01/18 12:16:00;;;;;;;9.23;3.63;;;6.00;99.90;;;;;;4825163;29;20464;-68
2021/01/18 12:18:27;;;;;;;10.70;3.40;;;6.10;99.90;;;;;;4829512;29;20133;-68
2021/01/18 12:20:54;;;;;;;10.43;3.30;;;6.20;99.90;;;;;;4829281;29;20145;-68
2021/01/18 12:23:20;;;;;;;10.75;3.60;;;6.40;99.90;;;;;;4829853;29;20064;-67
2021/01/18 12:25:47;;;;;;;6.78;3.58;;;6.60;99.90;;;;;;4829126;29;20053;-68
2021/01/18 12:28:13;;;;;;;10.80;3.42;;;7.00;99.90;;;;;;4827887;29;20106;-68
2021/01/18 12:30:40;;;;;;;8.95;3.20;;;7.30;99.90;;;;;;4840669;29;20121;-68
2021/01/18 12:33:07;;;;;;;10.85;2.90;;;7.40;99.90;;;;;;4827111;29;20053;-67
2021/01/18 12:35:47;;;;;;;7.30;3.05;;;7.30;99.90;;;;;;4827452;29;20418;-67
2021/01/18 12:38:13;;;;;;;6.68;3.00;;;7.30;99.90;;;;;;4827492;29;20098;-68
2021/01/18 12:40:40;;;;;;;10.52;3.92;;;7.20;99.90;;;;;;4845593;29;20058;-68
2021/01/18 12:43:06;;;;;;;7.60;2.88;;;7.20;99.90;;;;;;4837838;29;20173;-68
2021/01/18 12:45:33;;;;;;;8.45;2.97;;;7.10;99.90;;;;;;4824409;29;20443;-67
2021/01/18 12:47:59;;;;;;;8.70;2.75;;;7.00;99.90;;;;;;4825930;29;20064;-67
2021/01/18 12:50:25;;;;;;;9.00;2.75;;;6.90;99.90;;;;;;4827950;29;20558;-67
2021/01/18 12:52:52;;;;;;;8.07;2.58;;;6.90;99.90;;;;;;4829314;29;20049;-68
2021/01/18 12:55:20;;;;;;;7.68;3.10;;;6.80;99.90;;;;;;4825867;29;20050;-67
2021/01/18 12:57:50;;;;;;;15.20;2.72;;;6.80;99.90;;;;;;4846826;29;20478;-68
2021/01/18 13:00:17;;;;;;;14.05;2.92;;;6.80;99.90;;;;;;4829988;29;20074;-68
2021/01/18 13:02:43;;;;;;;11.60;2.75;;;6.80;99.90;;;;;;4832686;29;20066;-68
2021/01/18 13:05:10;;;;;;;11.30;2.90;;;6.80;99.90;;;;;;4828387;29;20115;-68
2021/01/18 13:07:56;;;;;;;7.45;2.75;;;6.80;99.90;;;;;;4835330;29;20558;-68
2021/01/18 13:10:23;;;;;;;9.35;2.95;;;6.80;99.90;;;;;;4841149;29;20142;-69
2021/01/18 13:12:50;;;;;;;11.52;2.90;;;6.80;99.90;;;;;;4830624;29;20053;-68
2021/01/18 13:15:16;;;;;;;13.52;2.53;;;6.80;99.90;;;;;;4827554;29;20077;-68
2021/01/18 13:17:42;;;;;;;6.00;2.60;;;6.80;99.90;;;;;;4828560;29;20053;-68
2021/01/18 13:20:09;;;;;;;6.53;2.17;;;6.80;99.90;;;;;;4858110;29;20478;-68